Главная страница
METAR-TAF:

METAR-TAF

Аэропорты :

Намсус, Норвегия

широта: 64-28N, долгота: 011-35E, высота над уровнем моря: 0 м

Текущие метеонаблюдения

Эта сводка был подготовлена 3 часа и 32 минут назад, в 19:50 UTC
Ветер 5 Узел от западный
Температура 4°C
Влажность 70%
Давление 1006 hPa
Видимость 10 км и более
небольшая облачность на высоте 3000 фута
Отдельные облака на высоте 7000 фута
ливни в окрестностях

METAR: ENNM 071950Z 26005KT 9999 VCSH FEW030 SCT070 04/M01 Q1006

Время: 01:22 (23:22 UTC)


TAF: отсутствует

Метеонаблюдения и прогнозы для более 4000 аэропортов (сводки METAR и TAF).

Имеющиеся станции представлены на карте желтыми и красными точками.

Чтобы увидеть название станции, наведите на нее мышь.

Затем щелкните, чтобы увидеть метеонаблюдения и метеопрогнозы.

Управление картой: чтобы увеличить масштаб, щелкните зеленые кнопки с черным крестиком; чтобы уменьшить масштаб, щелкните зеленую кнопку с тире; для просмотра соседних карт щелкайте зеленые стрелки.


METAR-TAF: